Weather observations for the past three days for
Fort Riley - Marshall AAF
| Date | Time (cdt) | Wind (mph) | Vis. (mi.) | Weather | Sky Cond. | Temperature (ºF) | Relative Humidity | Wind Chill (°F) | Heat Index (°F) | Pressure | Precipitation (in) | ||||||
|---|---|---|---|---|---|---|---|---|---|---|---|---|---|---|---|---|---|
| Air | Dwpt | 6 hour | altimeter (in) | sea level (mb) | 1 hr | 3 hr | 6 hr | ||||||||||
| Max. | Min. | ||||||||||||||||
| 02 | 07:55 | SW 7 | 10.00 | Fair | CLR | 80.4 | 63.7 | 57% | 82 | 29.94 | 1012.4 | ||||||
| 02 | 06:55 | Calm | 7.00 | A Few Clouds | FEW120 | 76.6 | 63.5 | 84.2 | 76.6 | 64% | 78 | 29.93 | 1012.1 | ||||
| 02 | 05:55 | SW 6 | 10.00 | A Few Clouds | FEW120 | 79.2 | 62.6 | 57% | 81 | 29.92 | 1011.7 | ||||||
| 02 | 04:55 | SW 5 | 10.00 | Partly Cloudy | SCT120 | 81.5 | 62.1 | 52% | 82 | 29.92 | 1011.6 | ||||||
| 02 | 03:55 | SW 8 | 10.00 | Fair | CLR | 82 | 62.1 | 51% | 83 | 29.91 | 1011.3 | ||||||
| 02 | 02:55 | SW 6 | 10.00 | Fair | CLR | 82.6 | 62.6 | 51% | 84 | 29.91 | 1011.3 | ||||||
| 02 | 01:55 | S 10 | 10.00 | Fair | CLR | 83.7 | 61.9 | 48% | 84 | 29.91 | 1011.2 | ||||||
| 02 | 00:55 | S 9 | 10.00 | Fair | CLR | 84.4 | 61.9 | 96.3 | 81.3 | 47% | 85 | 29.91 | 1011.3 | ||||
| 01 | 23:55 | S 10 | 10.00 | Fair | CLR | 84 | 60.3 | 45% | 84 | 29.91 | 1011.3 | ||||||
| 01 | 22:55 | S 10 | 10.00 | Fair | CLR | 85.1 | 59.4 | 42% | 85 | 29.91 | 1011.3 | ||||||
| 01 | 21:55 | S 14 | 10.00 | Fair | CLR | 88.5 | 58.8 | 37% | 88 | 29.9 | 1011.0 | ||||||
| 01 | 20:55 | S 16 | 10.00 | Fair | CLR | 89.2 | 60.3 | 38% | 89 | 29.88 | 1010.3 | ||||||
| 01 | 19:55 | S 12 | 10.00 | Fair | CLR | 91.9 | 61.2 | 36% | 92 | 29.87 | 1010.1 | ||||||
| 01 | 18:55 | S 10 | 10.00 | Fair | CLR | 96.4 | 59.9 | 101.3 | 96.4 | 30% | 96 | 29.87 | 1010.0 | ||||
| 01 | 17:55 | S 13 | 10.00 | Fair | CLR | 99.7 | 58.6 | 26% | 99 | 29.87 | 1010.0 | ||||||
| 01 | 16:55 | S 14 | 10.00 | Fair | CLR | 101.1 | 57.6 | 24% | 101 | 29.87 | 1010.0 | ||||||
| 01 | 15:55 | S 16 | 10.00 | Fair | CLR | 101.1 | 58.6 | 25% | 101 | 29.89 | 1010.6 | ||||||
| 01 | 14:55 | S 10 | 10.00 | Fair | CLR | 100.9 | 59.7 | 26% | 101 | 29.91 | 1011.3 | ||||||
| 01 | 13:55 | S 14 G 18 | 10.00 | Fair | CLR | 100.4 | 59.2 | 26% | 101 | 29.92 | 1011.6 | ||||||
| 01 | 12:55 | SW 14 | 10.00 | Fair | CLR | 98.8 | 61.9 | 99 | 73.9 | 30% | 100 | 29.95 | 1012.6 | ||||
| 01 | 11:55 | SW 13 | 10.00 | Fair | CLR | 96.3 | 62.4 | 33% | 97 | 29.96 | 1013.0 | ||||||
| 01 | 10:55 | SW 14 | 10.00 | Fair | CLR | 92.1 | 62.1 | 37% | 93 | 29.96 | 1013.1 | ||||||
| 01 | 09:55 | SW 10 | 10.00 | Fair | CLR | 88.2 | 63.5 | 44% | 89 | 29.97 | 1013.4 | ||||||
| 01 | 08:55 | W 8 | 10.00 | Fair | CLR | 84.4 | 62.4 | 48% | 85 | 29.98 | 1013.8 | ||||||
| 01 | 07:55 | Calm | 10.00 | Fair | CLR | 77 | 62.4 | 61% | 79 | 29.97 | 1013.5 | ||||||
| 01 | 06:55 | Calm | 10.00 | Fair | CLR | 75.2 | 60.8 | 83.8 | 75 | 61% | 77 | 29.96 | 1013.1 | ||||
| 01 | 05:55 | Calm | 10.00 | Fair | CLR | 77.2 | 60.8 | 57% | 79 | 29.96 | 1013.0 | ||||||
| 01 | 04:55 | SW 7 | 10.00 | Fair | CLR | 77.2 | 60.3 | 56% | 79 | 29.96 | 1013.0 | ||||||
| 01 | 03:55 | SW 7 | 10.00 | Fair | CLR | 80.8 | 60.4 | 50% | 82 | 29.94 | 1012.3 | ||||||
| 01 | 02:55 | SW 8 | 10.00 | Fair | CLR | 82 | 60.4 | 48% | 83 | 29.93 | 1012.0 | ||||||
| 01 | 01:55 | S 10 | 10.00 | Fair | CLR | 82.2 | 60.4 | 48% | 83 | 29.93 | 1012.0 | ||||||
| 01 | 00:55 | S 10 | 10.00 | Fair | CLR | 83.3 | 61 | 97.2 | 83.3 | 47% | 84 | 29.94 | 1012.3 | ||||
| 31 | 23:55 | S 15 | 10.00 | Fair | CLR | 84 | 61.5 | 47% | 85 | 29.93 | 1012.0 | ||||||
| 31 | 22:55 | S 14 | 10.00 | Fair | CLR | 86 | 62.1 | 45% | 87 | 29.92 | 1011.7 | ||||||
| 31 | 21:55 | S 15 | 10.00 | Fair | CLR | 88.3 | 61.5 | 41% | 89 | 29.9 | 1011.0 | ||||||
| 31 | 20:55 | SE 16 | 10.00 | Fair | CLR | 90 | 62.4 | 40% | 91 | 29.88 | 1010.3 | ||||||
| 31 | 19:55 | SE 10 | 10.00 | Fair | CLR | 93 | 62.8 | 37% | 94 | 29.87 | 1010.0 | ||||||
| 31 | 17:55 | S 12 | 10.00 | Fair | CLR | 100.9 | 61.7 | 28% | 102 | 29.86 | 1009.6 | ||||||
| 31 | 16:55 | S 13 | 10.00 | Fair | CLR | 102.4 | 61.9 | 27% | 104 | 29.87 | 1009.9 | ||||||
| 31 | 15:55 | SW 10 | 10.00 | Fair | CLR | 102.4 | 63 | 28% | 105 | 29.89 | 1010.6 | ||||||
| 31 | 14:55 | SW 12 | 10.00 | Fair | CLR | 101.8 | 63.5 | 29% | 105 | 29.9 | 1010.9 | ||||||
| 31 | 13:55 | S 12 | 10.00 | Fair | CLR | 99.7 | 63.5 | 31% | 102 | 29.92 | 1011.6 | ||||||
| 31 | 12:55 | S 14 | 10.00 | Fair | CLR | 98.4 | 63.3 | 98.4 | 80.4 | 32% | 100 | 29.92 | 1011.6 | ||||
| 31 | 11:55 | S 13 | 10.00 | Fair | CLR | 95.4 | 64 | 36% | 97 | 29.93 | 1012.0 | ||||||
| 31 | 10:55 | S 12 | 10.00 | Fair | CLR | 92.1 | 63.5 | 39% | 93 | 29.94 | 1012.3 | ||||||
| 31 | 09:55 | S 8 | 10.00 | Fair | CLR | 89.6 | 65.3 | 45% | 92 | 29.94 | 1012.3 | ||||||
| 31 | 08:55 | SW 5 | 10.00 | Fair | CLR | 84.7 | 64 | 50% | 86 | 29.96 | 1013.0 | ||||||
| 31 | 07:55 | W 7 | 10.00 | Fair | CLR | 81.9 | 62.4 | 52% | 83 | 29.95 | 1012.7 | ||||||
| 31 | 06:55 | SW 9 | 10.00 | Fair | CLR | 80.8 | 61 | 86.9 | 78.8 | 51% | 82 | 29.92 | 1011.7 | ||||
| 31 | 05:55 | SW 5 | 10.00 | Mostly Cloudy | BKN110 | 80.2 | 62.6 | 55% | 82 | 29.92 | 1011.6 | ||||||
| 31 | 04:55 | W 3 | 10.00 | A Few Clouds | FEW110 | 81.1 | 62.8 | 54% | 82 | 29.9 | 1010.9 | ||||||
| 31 | 03:55 | SW 9 | 10.00 | Fair | CLR | 82.4 | 61.9 | 50% | 83 | 29.87 | 1009.9 | ||||||
| 31 | 02:55 | S 10 | 10.00 | Fair | CLR | 83.7 | 61.2 | 47% | 84 | 29.85 | 1009.2 | ||||||
| 31 | 01:55 | S 8 | 10.00 | Fair | CLR | 84.2 | 61.2 | 46% | 85 | 29.86 | 1009.5 | ||||||
| 31 | 00:55 | S 12 | 10.00 | Fair | CLR | 86.9 | 61 | 99.1 | 86.7 | 42% | 87 | 29.86 | 1009.5 | ||||
| 30 | 23:55 | S 17 G 22 | 10.00 | Fair | CLR | 88.9 | 59.9 | 38% | 88 | 29.82 | 1008.2 | ||||||
| 30 | 22:55 | S 18 | 10.00 | Fair | CLR | 91 | 60.3 | 36% | 91 | 29.81 | 1007.9 | ||||||
| 30 | 21:55 | S 16 | 10.00 | Fair | CLR | 91.9 | 61.9 | 37% | 92 | 29.8 | 1007.6 | ||||||
| 30 | 20:55 | S 17 | 10.00 | Fair | CLR | 93.7 | 63.5 | 37% | 95 | 29.78 | 1006.9 | ||||||
| 30 | 19:55 | S 14 | 10.00 | Fair | CLR | 94.8 | 65.1 | 38% | 97 | 29.76 | 1006.3 | ||||||
| 30 | 18:55 | S 14 | 10.00 | Fair | CLR | 99.3 | 64.2 | 103.6 | 99.3 | 32% | 102 | 29.76 | 1006.2 | ||||
| 30 | 17:55 | S 14 G 20 | 10.00 | Fair | CLR | 102.2 | 63.9 | 29% | 105 | 29.75 | 1005.8 | ||||||
| 30 | 16:55 | S 17 | 10.00 | Fair | CLR | 103.5 | 63.9 | 28% | 107 | 29.76 | 1006.1 | ||||||
| 30 | 15:55 | S 17 G 23 | 10.00 | Fair | CLR | 103.3 | 64.8 | 29% | 107 | 29.77 | 1006.5 | ||||||
| 30 | 14:55 | S 16 G 25 | 10.00 | Fair | CLR | 102.6 | 65.1 | 30% | 107 | 29.79 | 1007.2 | ||||||
| 30 | 13:55 | S 18 | 10.00 | Fair | CLR | 101.7 | 65.3 | 31% | 106 | 29.8 | 1007.5 | ||||||
| 30 | 12:55 | S 16 | 10.00 | Fair | CLR | 99.3 | 65.8 | 99.3 | 81 | 34% | 103 | 29.82 | 1008.2 | ||||
| 30 | 11:55 | S 16 G 24 | 10.00 | Fair | CLR | 95.7 | 65.1 | 37% | 98 | 29.84 | 1008.9 | ||||||
| 30 | 10:55 | S 16 G 28 | 10.00 | Fair | CLR | 91.4 | 64.4 | 41% | 93 | 29.83 | 1008.6 | ||||||
| 30 | 09:55 | S 15 G 29 | 10.00 | Fair | CLR | 88.2 | 63.5 | 44% | 89 | 29.83 | 1008.6 | ||||||
| 30 | 08:55 | S 14 | 10.00 | Fair | CLR | 83.5 | 62.2 | 49% | 84 | 29.85 | 1009.3 | ||||||
| Date | Time (cdt) | Wind (mph) | Vis. (mi.) | Weather | Sky Cond. | Air | Dwpt | Max. | Min. | Relative Humidity | Wind Chill (°F) | Heat Index (°F) | altimeter (in) | sea level (mb) | 1 hr | 3 hr | 6 hr |
| 6 hour | |||||||||||||||||
| Temperature (ºF) | Pressure | Precipitation (in) | |||||||||||||||